Time;durP1;ratioP1;P1;durP2;ratioP2;P2;SDS_P1;SDS_P2;PMS_P1;PMS_P2;Temp;Humidity;BMP_temperature;BMP_pressure;BME280_temperature;BME280_humidity;BME280_pressure;Samples;Min_cycle;Max_cycle;Signal;HPM_P1;HPM_P2
2022/06/14 00:03:06;;;;;;;23.48;21.00;;;18.70;99.90;;;;;;5077432;28;20082;-90
2022/06/14 00:05:32;;;;;;;20.40;17.75;;;18.70;99.90;;;;;;5077974;28;20017;-90
2022/06/14 00:07:58;;;;;;;24.77;20.15;;;18.70;99.90;;;;;;5084775;28;20478;-93
2022/06/14 00:10:25;;;;;;;21.40;19.15;;;18.60;99.90;;;;;;5076866;28;20047;-92
2022/06/14 00:12:51;;;;;;;22.45;19.40;;;18.60;99.90;;;;;;5076672;28;20039;-91
2022/06/14 00:15:18;;;;;;;27.67;22.83;;;18.60;99.90;;;;;;5079263;28;20039;-90
2022/06/14 00:17:44;;;;;;;25.40;22.00;;;18.60;99.90;;;;;;5088238;28;20020;-92
2022/06/14 00:20:10;;;;;;;25.80;20.30;;;18.70;99.90;;;;;;5108539;28;20035;-89
2022/06/14 00:22:37;;;;;;;26.73;19.07;;;18.60;99.90;;;;;;5059174;28;20040;-90
2022/06/14 00:25:04;;;;;;;27.70;20.83;;;18.70;99.90;;;;;;5075324;28;20401;-91
2022/06/14 00:27:29;;;;;;;20.73;18.50;;;18.60;99.90;;;;;;5079978;28;20024;-93
2022/06/14 00:29:55;;;;;;;28.02;20.67;;;18.60;99.90;;;;;;5086026;28;20029;-91
2022/06/14 00:32:21;;;;;;;23.90;19.73;;;18.60;99.90;;;;;;5087156;28;20055;-91
2022/06/14 00:34:47;;;;;;;27.58;18.27;;;18.60;99.90;;;;;;5059769;28;20036;-90
2022/06/14 00:37:20;;;;;;;20.52;18.33;;;18.60;99.90;;;;;;5089979;28;20027;-90
2022/06/14 00:39:46;;;;;;;27.13;21.42;;;18.60;99.90;;;;;;5078976;28;20017;-91
2022/06/14 00:42:20;;;;;;;23.80;19.60;;;18.60;99.90;;;;;;5083608;28;20432;-90
2022/06/14 00:45:06;;;;;;;25.52;19.50;;;18.60;99.90;;;;;;5085516;28;20035;-88
2022/06/14 00:48:11;;;;;;;28.05;20.40;;;18.60;99.90;;;;;;5082048;28;20016;-89
2022/06/14 00:50:47;;;;;;;25.00;19.83;;;18.60;99.90;;;;;;5082506;28;20075;-89
2022/06/14 00:53:19;;;;;;;26.80;21.27;;;18.50;99.90;;;;;;5084687;28;20048;-88
2022/06/14 00:56:02;;;;;;;28.02;20.33;;;18.50;99.90;;;;;;5077926;28;20023;-89
2022/06/14 00:58:45;;;;;;;25.33;19.80;;;18.50;99.90;;;;;;5076855;28;20027;-89
2022/06/14 01:01:17;;;;;;;25.02;21.65;;;18.50;99.90;;;;;;5078295;28;20128;-89
2022/06/14 01:03:51;;;;;;;27.48;22.88;;;18.50;99.90;;;;;;5076353;28;20043;-88
2022/06/14 01:06:35;;;;;;;24.23;21.55;;;18.50;99.90;;;;;;5056369;28;20025;-89
2022/06/14 01:09:16;;;;;;;26.60;20.58;;;18.50;99.90;;;;;;5097773;28;20552;-88
2022/06/14 01:11:49;;;;;;;23.67;20.65;;;18.40;99.90;;;;;;5087703;28;20039;-88
2022/06/14 01:14:22;;;;;;;29.13;22.20;;;18.40;99.90;;;;;;5075694;28;20067;-89
2022/06/14 01:16:47;;;;;;;25.48;22.77;;;18.40;99.90;;;;;;5074329;28;20013;-89
2022/06/14 01:19:25;;;;;;;30.50;22.90;;;18.40;99.90;;;;;;5074869;28;20371;-88
2022/06/14 01:22:13;;;;;;;24.30;21.25;;;18.40;99.90;;;;;;5070568;28;20059;-90
2022/06/14 01:24:41;;;;;;;23.60;21.10;;;18.50;99.90;;;;;;5073978;28;20021;-89
2022/06/14 01:27:11;;;;;;;27.73;21.38;;;18.50;99.90;;;;;;5074248;28;20029;-89
2022/06/14 01:29:41;;;;;;;23.08;20.55;;;18.50;99.90;;;;;;5056414;28;20505;-91
2022/06/14 01:32:10;;;;;;;29.77;21.73;;;18.50;99.90;;;;;;5074254;28;20086;-88
2022/06/14 01:34:45;;;;;;;23.10;20.25;;;18.60;99.90;;;;;;5073640;28;20016;-89
2022/06/14 01:37:11;;;;;;;28.25;21.90;;;18.60;99.90;;;;;;5074355;28;20028;-88
2022/06/14 01:39:37;;;;;;;25.58;21.02;;;18.60;99.90;;;;;;5056922;28;20040;-89
2022/06/14 01:42:28;;;;;;;24.58;22.08;;;18.70;99.90;;;;;;5055391;28;20044;-90
2022/06/14 01:44:56;;;;;;;24.30;21.42;;;18.70;99.90;;;;;;5055544;28;20027;-90
2022/06/14 01:47:36;;;;;;;24.35;21.58;;;18.70;99.90;;;;;;5073779;28;20017;-90
2022/06/14 01:53:05;;;;;;;27.80;21.42;;;18.80;99.90;;;;;;5078028;28;20869;-89
2022/06/14 01:55:40;;;;;;;27.20;21.83;;;18.80;99.90;;;;;;5078967;28;20199;-88
2022/06/14 01:58:05;;;;;;;26.33;21.50;;;18.80;99.90;;;;;;5073486;28;20055;-89
2022/06/14 02:00:39;;;;;;;22.70;19.73;;;18.80;99.90;;;;;;5086779;28;20032;-89
2022/06/14 02:06:38;;;;;;;27.83;20.27;;;18.80;99.90;;;;;;5069135;28;20056;-89
2022/06/14 02:09:19;;;;;;;29.38;22.77;;;18.90;99.90;;;;;;5094351;28;20031;-90
2022/06/14 02:11:46;;;;;;;25.05;21.25;;;18.90;99.90;;;;;;5074258;28;20036;-92
2022/06/14 02:14:49;;;;;;;24.73;19.88;;;18.80;99.90;;;;;;5093325;28;20028;-91
2022/06/14 02:17:28;;;;;;;23.85;21.13;;;18.90;99.90;;;;;;5018587;28;20096;-92
2022/06/14 02:20:01;;;;;;;24.88;21.73;;;18.90;99.90;;;;;;5055083;28;20116;-92
2022/06/14 02:22:40;;;;;;;25.90;20.33;;;18.90;99.90;;;;;;5025265;28;20091;-89
2022/06/14 02:25:17;;;;;;;27.02;21.70;;;19.00;99.90;;;;;;5021078;28;20495;-90
2022/06/14 02:27:58;;;;;;;31.25;23.55;;;19.00;99.90;;;;;;5035632;28;20487;-89
2022/06/14 02:30:42;;;;;;;32.97;25.05;;;19.10;99.70;;;;;;5036472;28;20045;-92
2022/06/14 02:33:33;;;;;;;30.23;24.65;;;19.20;99.50;;;;;;5026846;28;20030;-91
2022/06/14 02:36:11;;;;;;;31.58;25.00;;;19.20;99.50;;;;;;5034054;28;20024;-89
2022/06/14 02:38:48;;;;;;;29.42;23.98;;;19.30;99.50;;;;;;5036327;28;20026;-90
2022/06/14 02:41:30;;;;;;;30.70;26.63;;;19.40;99.40;;;;;;5038695;28;20030;-90
2022/06/14 02:44:26;;;;;;;34.47;26.55;;;19.50;99.10;;;;;;5031377;28;20029;-89
2022/06/14 02:47:26;;;;;;;35.53;26.83;;;19.50;98.80;;;;;;5004591;28;20064;-91
2022/06/14 02:50:06;;;;;;;32.75;25.83;;;19.50;98.70;;;;;;5015720;28;20042;-89
2022/06/14 02:52:53;;;;;;;32.88;27.02;;;19.50;98.70;;;;;;5051650;28;20113;-89
2022/06/14 02:55:28;;;;;;;33.45;29.42;;;19.50;98.80;;;;;;5044005;28;20093;-90
2022/06/14 02:58:13;;;;;;;34.63;29.33;;;19.50;98.90;;;;;;5049917;28;20032;-91
2022/06/14 03:00:38;;;;;;;36.65;27.85;;;19.40;98.90;;;;;;5064430;28;20025;-90
2022/06/14 03:03:11;;;;;;;27.67;24.77;;;19.40;99.00;;;;;;5066589;28;20047;-90
2022/06/14 03:05:44;;;;;;;35.15;29.42;;;19.40;99.00;;;;;;5060360;28;20104;-92
2022/06/14 03:08:21;;;;;;;34.25;27.35;;;19.50;99.00;;;;;;5060485;28;20036;-91
2022/06/14 03:10:55;;;;;;;37.38;29.27;;;19.50;98.90;;;;;;5060558;28;20119;-91
2022/06/14 03:13:33;;;;;;;31.70;28.40;;;19.70;98.60;;;;;;5042005;28;20482;-90
2022/06/14 03:16:40;;;;;;;30.58;27.27;;;19.90;98.40;;;;;;5039242;28;20026;-92
2022/06/14 03:19:12;;;;;;;30.75;25.75;;;20.20;97.80;;;;;;5063733;28;20037;-92
2022/06/14 03:22:02;;;;;;;31.77;27.00;;;20.40;97.40;;;;;;5043431;28;20388;-91
2022/06/14 03:24:37;;;;;;;35.72;27.00;;;20.60;96.90;;;;;;5060429;28;20021;-92
2022/06/14 03:27:09;;;;;;;30.25;27.15;;;20.80;96.20;;;;;;5046544;28;20031;-93
2022/06/14 03:29:37;;;;;;;34.38;28.80;;;20.90;95.60;;;;;;5072365;28;20067;-92
2022/06/14 03:32:16;;;;;;;32.90;27.70;;;21.10;95.40;;;;;;5042799;28;20052;-95
2022/06/14 03:34:49;;;;;;;38.78;28.73;;;21.20;95.10;;;;;;5044816;28;20520;-92
2022/06/14 03:37:17;;;;;;;30.30;26.67;;;21.30;94.50;;;;;;5038888;28;20029;-91
2022/06/14 03:39:55;;;;;;;30.52;27.23;;;21.30;94.10;;;;;;5058212;28;20109;-90
2022/06/14 03:42:21;;;;;;;33.55;28.80;;;21.40;94.00;;;;;;5057682;28;20025;-90
2022/06/14 03:44:48;;;;;;;34.47;28.52;;;21.40;94.00;;;;;;5039285;28;20017;-90
2022/06/14 03:47:17;;;;;;;33.33;28.65;;;21.40;93.90;;;;;;5055024;28;20024;-89
2022/06/14 03:49:52;;;;;;;34.03;28.80;;;21.50;93.80;;;;;;5051660;28;20032;-91
2022/06/14 03:52:24;;;;;;;32.47;28.95;;;21.50;93.50;;;;;;5061978;28;20040;-89
2022/06/14 03:55:01;;;;;;;35.30;27.30;;;21.50;93.50;;;;;;5076173;28;20024;-90
2022/06/14 03:57:39;;;;;;;34.22;28.92;;;21.50;93.30;;;;;;5073808;28;20016;-88
2022/06/14 04:00:26;;;;;;;35.58;29.13;;;21.50;93.30;;;;;;5075820;28;20032;-89
2022/06/14 04:03:30;;;;;;;34.72;28.77;;;21.70;93.30;;;;;;5075349;28;20021;-89
2022/06/14 04:06:11;;;;;;;35.90;27.92;;;21.80;93.10;;;;;;5075833;28;20477;-91
2022/06/14 04:08:49;;;;;;;32.97;29.23;;;21.90;92.60;;;;;;5075228;28;20024;-90
2022/06/14 04:11:43;;;;;;;31.25;27.85;;;21.90;92.60;;;;;;5076797;28;20037;-90
2022/06/14 04:14:18;;;;;;;36.13;27.23;;;21.90;92.50;;;;;;5079066;28;20021;-90
2022/06/14 04:17:20;;;;;;;37.17;30.40;;;22.00;92.30;;;;;;5077756;28;20020;-90
2022/06/14 04:20:05;;;;;;;38.22;29.35;;;22.00;92.10;;;;;;5076051;28;20024;-92
2022/06/14 04:22:36;;;;;;;33.20;29.58;;;21.90;92.10;;;;;;5073166;28;20021;-90
2022/06/14 04:25:50;;;;;;;34.58;30.75;;;21.70;92.10;;;;;;5113724;28;20058;-91
2022/06/14 04:28:48;;;;;;;32.30;28.90;;;21.50;92.60;;;;;;5023336;28;20074;-92
2022/06/14 04:31:35;;;;;;;33.05;29.25;;;21.50;92.90;;;;;;5001505;28;20607;-91
2022/06/14 04:34:17;;;;;;;32.35;28.85;;;21.60;93.10;;;;;;5000487;28;20392;-91
2022/06/14 04:36:59;;;;;;;32.42;27.85;;;21.70;92.90;;;;;;5016753;28;20030;-93
2022/06/14 04:39:35;;;;;;;34.25;28.80;;;21.90;92.60;;;;;;5006771;28;20060;-91
2022/06/14 04:42:31;;;;;;;33.47;29.42;;;22.10;92.40;;;;;;5022174;28;20153;-91
2022/06/14 04:45:13;;;;;;;28.48;25.45;;;22.20;91.80;;;;;;5016224;28;20029;-91
2022/06/14 04:48:03;;;;;;;31.25;26.42;;;22.40;91.60;;;;;;5037180;28;20037;-90
2022/06/14 04:50:38;;;;;;;28.67;25.65;;;22.50;91.20;;;;;;5034826;28;20054;-89
2022/06/14 04:53:11;;;;;;;29.30;23.75;;;22.60;90.80;;;;;;5027590;28;20042;-93
2022/06/14 04:55:52;;;;;;;32.22;23.15;;;22.80;90.30;;;;;;5023599;28;20081;-92
2022/06/14 04:58:36;;;;;;;26.95;23.92;;;22.80;90.30;;;;;;5010783;28;20022;-92
2022/06/14 05:01:07;;;;;;;30.98;24.05;;;22.90;90.10;;;;;;5066897;28;20052;-92
2022/06/14 05:03:39;;;;;;;24.85;22.25;;;22.90;89.50;;;;;;5048881;28;20443;-89
2022/06/14 05:06:17;;;;;;;22.00;19.70;;;23.00;89.40;;;;;;5074075;28;20012;-89
2022/06/14 05:08:47;;;;;;;24.67;20.42;;;23.10;89.30;;;;;;5074568;28;20036;-90
2022/06/14 05:11:34;;;;;;;23.90;19.85;;;23.30;89.10;;;;;;5072804;28;20029;-90
2022/06/14 05:14:06;;;;;;;21.98;18.52;;;23.90;88.10;;;;;;5056421;28;20032;-89
2022/06/14 05:17:12;;;;;;;24.23;19.60;;;24.60;84.50;;;;;;5053099;28;20091;-92
2022/06/14 05:19:37;;;;;;;22.10;18.93;;;25.80;81.50;;;;;;5065739;28;20036;-89
2022/06/14 05:22:22;;;;;;;23.88;18.00;;;26.80;76.60;;;;;;5074303;28;20032;-92
2022/06/14 05:24:50;;;;;;;21.33;17.50;;;27.80;73.00;;;;;;5075091;28;20461;-90
2022/06/14 05:27:33;;;;;;;25.98;19.83;;;28.60;69.10;;;;;;5075581;28;20024;-92
2022/06/14 05:30:06;;;;;;;21.05;18.63;;;28.90;67.20;;;;;;5074531;28;20082;-93
2022/06/14 05:32:42;;;;;;;25.45;18.35;;;;;;;;;;5074820;28;20020;-92
2022/06/14 05:35:21;;;;;;;22.47;20.17;;;;;;;;;;5078796;28;20028;-89
2022/06/14 05:37:57;;;;;;;21.55;18.55;;;;;;;;;;5074433;28;20258;-92
2022/06/14 05:40:30;;;;;;;21.80;19.13;;;29.20;65.80;;;;;;5075417;28;20044;-93
2022/06/14 05:43:15;;;;;;;23.27;19.13;;;31.40;60.30;;;;;;5072368;28;20264;-92
2022/06/14 05:45:51;;;;;;;23.45;19.00;;;32.40;57.50;;;;;;5065160;28;20017;-92
2022/06/14 05:48:25;;;;;;;20.30;18.17;;;33.10;55.30;;;;;;5065377;28;20120;-92
2022/06/14 05:50:54;;;;;;;19.00;17.17;;;33.50;54.20;;;;;;5078390;28;20035;-93
2022/06/14 05:53:46;;;;;;;18.50;16.27;;;33.60;51.80;;;;;;5067611;28;20049;-91
2022/06/14 05:56:33;;;;;;;17.90;15.55;;;33.90;51.90;;;;;;5069662;28;20037;-94
2022/06/14 05:59:31;;;;;;;19.45;15.52;;;34.10;50.80;;;;;;5052932;28;20021;-94
2022/06/14 06:02:33;;;;;;;15.32;13.65;;;34.00;51.30;;;;;;5059708;28;20127;-92
2022/06/14 06:05:28;;;;;;;14.27;12.82;;;34.10;50.70;;;;;;5083325;28;20074;-93
2022/06/14 06:08:00;;;;;;;13.77;12.00;;;33.40;50.60;;;;;;5070298;28;20020;-95
2022/06/14 06:10:37;;;;;;;12.73;11.52;;;32.70;51.30;;;;;;5081814;28;20411;-96
2022/06/14 06:13:13;;;;;;;16.52;12.52;;;32.40;51.90;;;;;;5059079;28;20134;-88
2022/06/14 06:15:56;;;;;;;16.67;12.80;;;32.20;53.20;;;;;;5050908;28;20020;-89
2022/06/14 06:18:35;;;;;;;14.93;12.30;;;32.30;53.40;;;;;;5067325;28;20112;-91
2022/06/14 06:21:34;;;;;;;12.30;10.88;;;33.30;51.60;;;;;;5068016;28;20050;-91
2022/06/14 06:24:08;;;;;;;14.90;11.18;;;33.70;50.80;;;;;;5012897;28;20032;-88
2022/06/14 06:26:39;;;;;;;16.65;10.60;;;33.40;50.20;;;;;;5076199;28;20497;-87
2022/06/14 06:29:37;;;;;;;11.05;9.75;;;33.50;50.30;;;;;;5074627;28;20077;-91
2022/06/14 06:32:05;;;;;;;14.20;10.95;;;34.20;50.00;;;;;;5062382;28;20082;-91
2022/06/14 06:34:31;;;;;;;16.80;10.82;;;35.40;47.90;;;;;;5066703;28;20123;-93
2022/06/14 06:37:35;;;;;;;12.90;10.38;;;36.30;45.50;;;;;;5061142;28;20030;-91
2022/06/14 06:40:11;;;;;;;13.95;10.70;;;37.00;46.50;;;;;;5058822;28;20056;-92
2022/06/14 06:42:54;;;;;;;12.27;10.23;;;36.60;44.40;;;;;;5092000;28;20024;-91
2022/06/14 06:45:26;;;;;;;11.70;9.30;;;35.30;46.00;;;;;;5090447;28;20074;-90
2022/06/14 06:47:51;;;;;;;10.63;9.52;;;34.50;47.00;;;;;;5096700;28;20025;-92
2022/06/14 06:50:22;;;;;;;12.07;10.43;;;34.60;47.10;;;;;;5070732;28;20078;-94
2022/06/14 06:52:53;;;;;;;10.52;9.43;;;34.90;46.50;;;;;;5081599;28;20123;-91
2022/06/14 06:55:53;;;;;;;14.20;9.60;;;35.10;45.50;;;;;;5062917;28;20016;-91
2022/06/14 06:58:22;;;;;;;13.00;9.88;;;34.30;46.80;;;;;;5067547;28;20036;-92
2022/06/14 07:00:50;;;;;;;16.48;11.25;;;32.90;48.50;;;;;;5079252;28;20020;-93
2022/06/14 07:03:39;;;;;;;13.75;9.57;;;31.90;50.30;;;;;;5079693;28;20458;-92
2022/06/14 07:06:11;;;;;;;12.30;8.55;;;31.20;52.00;;;;;;5078287;28;20478;-89
2022/06/14 07:08:55;;;;;;;12.13;7.40;;;31.20;51.90;;;;;;5061349;28;20086;-91
2022/06/14 07:11:32;;;;;;;8.45;6.38;;;32.00;50.40;;;;;;5078797;28;20072;-89
2022/06/14 07:14:31;;;;;;;8.23;5.50;;;33.60;48.10;;;;;;5081221;28;20016;-90
2022/06/14 07:17:25;;;;;;;6.65;5.60;;;33.40;44.30;;;;;;5067975;28;20037;-91
2022/06/14 07:20:03;;;;;;;7.70;6.10;;;30.90;47.20;;;;;;5079549;28;20562;-90
2022/06/14 07:23:00;;;;;;;8.73;6.40;;;28.90;51.70;;;;;;5065590;28;20025;-91
2022/06/14 07:25:51;;;;;;;7.97;5.95;;;28.00;54.10;;;;;;5051965;28;20103;-90
2022/06/14 07:28:54;;;;;;;10.35;6.63;;;28.90;54.60;;;;;;5060502;28;20021;-91
2022/06/14 07:31:28;;;;;;;10.00;6.28;;;30.60;52.50;;;;;;5077435;28;20458;-91
2022/06/14 07:33:56;;;;;;;7.80;5.00;;;33.60;48.80;;;;;;5093830;28;20498;-91
2022/06/14 07:36:56;;;;;;;10.30;5.43;;;35.80;43.80;;;;;;5059714;28;20119;-91
2022/06/14 07:39:36;;;;;;;7.13;5.35;;;35.80;42.70;;;;;;5077940;28;20031;-93
2022/06/14 07:42:13;;;;;;;6.10;4.75;;;34.30;43.90;;;;;;5061336;28;20032;-89
2022/06/14 07:45:03;;;;;;;6.03;4.47;;;33.10;44.60;;;;;;5084604;28;20020;-90
2022/06/14 07:47:29;;;;;;;7.13;5.72;;;;;;;;;;5061187;28;20036;-89
2022/06/14 07:50:06;;;;;;;9.25;5.75;;;32.80;44.80;;;;;;5079670;28;20039;-89
2022/06/14 07:52:43;;;;;;;8.35;5.80;;;30.50;48.30;;;;;;5058977;28;20090;-89
2022/06/14 07:55:41;;;;;;;5.55;5.03;;;30.40;49.40;;;;;;5076268;28;20482;-89
2022/06/14 07:58:30;;;;;;;7.18;5.10;;;31.10;48.50;;;;;;5078429;28;20031;-90
2022/06/14 08:01:09;;;;;;;11.77;5.28;;;32.60;46.80;;;;;;5077672;28;20039;-91
2022/06/14 08:03:54;;;;;;;6.82;5.55;;;32.80;45.20;;;;;;5093841;28;20069;-90
2022/06/14 08:06:32;;;;;;;6.00;5.50;;;32.40;46.50;;;;;;5093464;28;20119;-90
2022/06/14 08:09:21;;;;;;;7.68;6.10;;;33.10;46.00;;;;;;5059646;28;20449;-90
2022/06/14 08:11:52;;;;;;;6.35;5.38;;;32.90;45.80;;;;;;5052968;28;20039;-91
2022/06/14 08:14:40;;;;;;;7.75;6.53;;;31.80;46.90;;;;;;5079345;28;20039;-90
2022/06/14 08:17:08;;;;;;;6.30;5.70;;;30.90;49.30;;;;;;5083589;28;20441;-88
2022/06/14 08:20:01;;;;;;;8.27;5.53;;;32.90;47.80;;;;;;5082305;28;20104;-88
2022/06/14 08:22:42;;;;;;;9.82;4.95;;;35.40;44.80;;;;;;5073382;28;20037;-88
2022/06/14 08:25:16;;;;;;;6.68;5.13;;;37.40;41.80;;;;;;5077330;28;20021;-89
2022/06/14 08:27:55;;;;;;;6.82;6.22;;;37.10;40.00;;;;;;5059649;28;20111;-91
2022/06/14 08:30:29;;;;;;;7.95;6.50;;;34.80;42.20;;;;;;5057980;28;20048;-90
2022/06/14 08:33:06;;;;;;;9.15;6.35;;;33.10;44.90;;;;;;5076167;28;20070;-90
2022/06/14 08:35:46;;;;;;;7.15;6.15;;;31.70;47.50;;;;;;5076885;28;20052;-92
2022/06/14 08:38:40;;;;;;;6.95;6.25;;;31.20;49.20;;;;;;5077446;28;20132;-93
2022/06/14 08:41:46;;;;;;;9.48;6.55;;;31.10;49.00;;;;;;5059865;28;20031;-90
2022/06/14 08:44:23;;;;;;;8.98;6.55;;;30.40;49.60;;;;;;5071469;28;20365;-89
2022/06/14 08:47:16;;;;;;;6.53;5.93;;;29.80;50.70;;;;;;5081584;28;20036;-89
2022/06/14 08:49:56;;;;;;;7.28;5.88;;;30.40;52.10;;;;;;5079759;28;20057;-92
2022/06/14 08:52:57;;;;;;;7.47;6.05;;;31.60;48.60;;;;;;5073789;28;20048;-91
2022/06/14 08:55:45;;;;;;;10.77;5.75;;;31.50;47.90;;;;;;5095280;28;20021;-90
2022/06/14 08:58:52;;;;;;;7.82;6.40;;;30.70;48.80;;;;;;5067301;28;20123;-90
2022/06/14 09:01:32;;;;;;;7.72;6.07;;;30.30;49.80;;;;;;5040759;28;20067;-91
2022/06/14 09:04:08;;;;;;;7.95;5.82;;;32.20;49.00;;;;;;5056295;28;20144;-91
2022/06/14 09:06:55;;;;;;;;;;;35.60;45.00;;;;;;5057215;28;20032;-92
2022/06/14 09:09:43;;;;;;;6.28;4.82;;;37.70;43.70;;;;;;5055283;28;19904;-90
2022/06/14 09:12:18;;;;;;;7.18;5.20;;;37.10;39.90;;;;;;5054865;28;20033;-93
2022/06/14 09:15:11;;;;;;;8.90;4.80;;;35.20;41.00;;;;;;5057481;28;20116;-92
2022/06/14 09:17:52;;;;;;;5.75;4.90;;;35.30;42.10;;;;;;5070552;28;20528;-92
2022/06/14 09:20:32;;;;;;;4.65;4.25;;;37.90;40.00;;;;;;5047496;28;20036;-90
2022/06/14 09:23:17;;;;;;;7.93;4.15;;;38.30;37.80;;;;;;5054222;28;20414;-90
2022/06/14 09:26:01;;;;;;;4.45;3.50;;;38.70;36.70;;;;;;5061775;28;20021;-90
2022/06/14 09:28:52;;;;;;;6.57;3.42;;;37.90;35.40;;;;;;5064652;28;20108;-90
2022/06/14 09:31:38;;;;;;;5.18;3.45;;;35.50;37.70;;;;;;5068809;28;20037;-90
2022/06/14 09:34:13;;;;;;;6.03;3.45;;;36.10;38.90;;;;;;5107464;28;20056;-90
2022/06/14 09:36:58;;;;;;;9.48;3.90;;;36.90;37.10;;;;;;5093195;28;20024;-90
2022/06/14 09:39:45;;;;;;;7.45;3.60;;;37.90;36.60;;;;;;5077592;28;20488;-91
2022/06/14 09:42:27;;;;;;;8.30;3.53;;;37.90;34.80;;;;;;5063753;28;20058;-91
2022/06/14 09:44:53;;;;;;;7.45;4.30;;;35.60;36.80;;;;;;5075369;28;20051;-92
2022/06/14 09:47:21;;;;;;;4.57;4.17;;;;;;;;;;5078653;28;20020;-88
2022/06/14 09:50:17;;;;;;;10.60;4.63;;;32.50;41.40;;;;;;5080077;28;20477;-90
2022/06/14 09:53:02;;;;;;;11.20;4.72;;;32.80;41.60;;;;;;5064969;28;20441;-91
2022/06/14 09:55:54;;;;;;;6.00;3.33;;;33.40;41.30;;;;;;5042669;28;20029;-89
2022/06/14 09:58:47;;;;;;;6.57;3.53;;;34.90;39.30;;;;;;5045190;28;20474;-90
2022/06/14 10:01:40;;;;;;;5.07;3.35;;;35.60;37.40;;;;;;5056674;28;20021;-91
2022/06/14 10:04:47;;;;;;;6.50;2.88;;;36.40;36.40;;;;;;5059470;28;20459;-91
2022/06/14 10:07:20;;;;;;;6.53;3.05;;;;;;;;;;5037164;28;20060;-92
2022/06/14 10:09:58;;;;;;;5.35;3.80;;;36.80;34.70;;;;;;5072573;28;20088;-88
2022/06/14 10:12:47;;;;;;;4.10;3.50;;;35.10;37.10;;;;;;5055993;28;20029;-90
2022/06/14 10:15:47;;;;;;;8.50;4.80;;;34.00;39.20;;;;;;5036278;28;20486;-89
2022/06/14 10:18:47;;;;;;;5.32;4.75;;;33.80;39.70;;;;;;5037161;28;20029;-91
2022/06/14 10:21:19;;;;;;;6.90;4.60;;;33.50;40.10;;;;;;5060557;28;20471;-92
2022/06/14 10:24:21;;;;;;;6.30;4.80;;;33.90;39.60;;;;;;5040181;28;20021;-92
2022/06/14 10:30:23;;;;;;;10.32;4.47;;;33.90;39.50;;;;;;5051622;28;20041;-91
2022/06/14 10:33:18;;;;;;;6.35;3.65;;;33.70;39.40;;;;;;5052002;28;20052;-92
2022/06/14 10:36:05;;;;;;;4.93;4.50;;;32.90;40.00;;;;;;5059877;28;20445;-90
2022/06/14 10:39:06;;;;;;;9.25;5.00;;;32.10;41.30;;;;;;5041927;28;20021;-90
2022/06/14 10:42:02;;;;;;;5.93;4.55;;;31.30;42.50;;;;;;5059963;28;20105;-91
2022/06/14 10:44:49;;;;;;;5.97;4.65;;;30.80;42.90;;;;;;5041616;28;20021;-91
2022/06/14 10:47:34;;;;;;;7.53;4.20;;;30.60;44.20;;;;;;5070795;28;20025;-91
2022/06/14 10:50:26;;;;;;;7.70;4.43;;;30.40;43.20;;;;;;5076945;28;20029;-91
2022/06/14 10:53:07;;;;;;;7.90;3.88;;;30.20;43.40;;;;;;5074091;28;20040;-92
2022/06/14 10:55:54;;;;;;;9.15;4.30;;;29.80;43.00;;;;;;5101634;28;20040;-92
2022/06/14 10:58:38;;;;;;;7.00;4.47;;;29.10;44.40;;;;;;5082938;28;20039;-91
2022/06/14 11:01:38;;;;;;;4.40;3.90;;;28.90;44.80;;;;;;5081676;28;20016;-91
2022/06/14 11:04:39;;;;;;;9.27;4.82;;;28.80;44.80;;;;;;5064333;28;20147;-92
2022/06/14 11:07:28;;;;;;;6.20;4.82;;;28.60;46.30;;;;;;5060816;28;20047;-90
2022/06/14 11:10:23;;;;;;;4.90;4.15;;;28.40;46.80;;;;;;5069080;28;20025;-89
2022/06/14 11:13:13;;;;;;;7.18;4.25;;;28.00;46.20;;;;;;5084574;28;20089;-91
2022/06/14 11:15:51;;;;;;;7.68;4.85;;;27.60;47.30;;;;;;5064673;28;20025;-91
2022/06/14 11:18:46;;;;;;;4.40;3.97;;;27.40;47.90;;;;;;5056309;28;20047;-92
2022/06/14 11:21:44;;;;;;;5.10;3.83;;;27.20;48.00;;;;;;5062637;28;20103;-91
2022/06/14 11:24:35;;;;;;;9.43;4.47;;;27.10;48.60;;;;;;5061798;28;20405;-91
2022/06/14 11:27:25;;;;;;;7.72;4.15;;;27.10;48.60;;;;;;5064693;28;20033;-89
2022/06/14 11:29:54;;;;;;;7.05;5.18;;;27.30;48.30;;;;;;5077995;28;20025;-90
2022/06/14 11:33:02;;;;;;;4.60;3.90;;;27.50;48.80;;;;;;5081773;28;20490;-90
2022/06/14 11:35:33;;;;;;;4.35;4.00;;;27.50;48.30;;;;;;5006561;28;20034;-90
2022/06/14 11:38:17;;;;;;;6.93;4.35;;;27.20;48.60;;;;;;5021745;28;20112;-91
2022/06/14 11:40:52;;;;;;;6.97;3.85;;;27.00;49.10;;;;;;5021845;28;20030;-90
2022/06/14 11:43:43;;;;;;;4.13;2.78;;;26.90;49.30;;;;;;5004989;28;20060;-91
2022/06/14 11:46:25;;;;;;;4.93;3.65;;;26.90;49.00;;;;;;5023174;28;20111;-91
2022/06/14 11:49:01;;;;;;;5.97;4.55;;;26.80;49.50;;;;;;5024692;28;20045;-90
2022/06/14 11:51:45;;;;;;;8.13;4.43;;;27.10;50.10;;;;;;5022280;28;20084;-94
2022/06/14 11:54:32;;;;;;;8.60;3.92;;;27.40;49.30;;;;;;5019667;28;20470;-93
2022/06/14 11:57:13;;;;;;;8.88;4.22;;;27.50;47.50;;;;;;5016809;28;20041;-93
2022/06/14 12:00:12;;;;;;;7.38;4.43;;;27.40;48.20;;;;;;5018305;28;20046;-92
2022/06/14 12:02:40;;;;;;;5.28;4.50;;;27.30;48.80;;;;;;5001639;28;20030;-90
2022/06/14 12:05:34;;;;;;;6.15;4.38;;;27.10;48.80;;;;;;4985850;28;20130;-91
2022/06/14 12:08:06;;;;;;;5.43;3.85;;;27.20;48.60;;;;;;5003781;28;20026;-90
2022/06/14 12:10:47;;;;;;;6.65;4.28;;;27.00;48.80;;;;;;5057369;28;20083;-91
2022/06/14 12:13:36;;;;;;;5.20;3.70;;;27.00;49.10;;;;;;5054523;28;20048;-89
2022/06/14 12:16:02;;;;;;;4.90;3.33;;;27.30;48.40;;;;;;5075159;28;20064;-90
2022/06/14 12:18:33;;;;;;;6.45;3.88;;;27.40;48.40;;;;;;5072101;28;20032;-92
2022/06/14 12:21:36;;;;;;;3.30;2.90;;;27.40;48.20;;;;;;5043166;28;20021;-91
2022/06/14 12:24:17;;;;;;;8.63;3.85;;;27.40;47.60;;;;;;5028841;28;20402;-93
2022/06/14 12:26:56;;;;;;;7.30;3.35;;;27.10;48.40;;;;;;5059692;28;20074;-91
2022/06/14 12:29:39;;;;;;;8.15;3.88;;;27.10;49.10;;;;;;5057355;28;20017;-91
2022/06/14 12:32:28;;;;;;;8.30;4.15;;;27.00;49.60;;;;;;5039185;28;20142;-91
2022/06/14 12:35:03;;;;;;;10.77;3.47;;;27.20;50.00;;;;;;5053965;28;20093;-91
2022/06/14 12:37:41;;;;;;;4.53;3.55;;;27.50;48.80;;;;;;5041029;28;20021;-89
2022/06/14 12:40:30;;;;;;;5.53;3.78;;;27.50;49.60;;;;;;5040271;28;20017;-90
2022/06/14 12:43:18;;;;;;;6.47;3.63;;;27.60;48.70;;;;;;5042258;28;20025;-90
2022/06/14 12:45:56;;;;;;;8.80;4.10;;;27.70;49.20;;;;;;5040487;28;20048;-89
2022/06/14 12:48:40;;;;;;;5.60;3.78;;;27.80;49.30;;;;;;5039933;28;20036;-90
2022/06/14 12:51:15;;;;;;;11.52;4.07;;;27.70;48.70;;;;;;5042161;28;20174;-92
2022/06/14 12:53:53;;;;;;;10.27;3.60;;;27.50;49.30;;;;;;5059893;28;20059;-91
2022/06/14 12:56:47;;;;;;;6.68;3.28;;;27.40;49.00;;;;;;5085551;28;20020;-91
2022/06/14 12:59:23;;;;;;;5.93;3.85;;;27.20;48.90;;;;;;5037589;28;20493;-89
2022/06/14 13:02:24;;;;;;;4.72;2.92;;;27.10;48.70;;;;;;5065720;28;20024;-91
2022/06/14 13:05:10;;;;;;;5.03;3.40;;;27.00;49.00;;;;;;5079453;28;20013;-91
2022/06/14 13:08:15;;;;;;;4.43;3.10;;;26.90;49.60;;;;;;5062314;28;20028;-92
2022/06/14 13:11:00;;;;;;;7.10;3.78;;;27.00;49.90;;;;;;5030583;28;20094;-91
2022/06/14 13:13:54;;;;;;;7.95;3.80;;;27.40;50.00;;;;;;5069472;28;20021;-92
2022/06/14 13:16:35;;;;;;;13.70;3.70;;;27.80;49.60;;;;;;5062409;28;20028;-90
2022/06/14 13:19:06;;;;;;;7.95;3.28;;;27.80;49.70;;;;;;5080259;28;20100;-90
2022/06/14 13:21:42;;;;;;;8.43;3.65;;;27.80;49.40;;;;;;5081262;28;20021;-91
2022/06/14 13:24:33;;;;;;;5.35;3.17;;;27.70;49.30;;;;;;5087612;28;20020;-92
2022/06/14 13:27:25;;;;;;;6.38;3.40;;;27.40;49.50;;;;;;5084838;28;20054;-89
2022/06/14 13:29:54;;;;;;;9.52;3.10;;;27.30;49.80;;;;;;5091361;28;20028;-91
2022/06/14 13:32:32;;;;;;;4.32;3.25;;;27.20;50.00;;;;;;5103799;28;20031;-91
2022/06/14 13:35:27;;;;;;;4.30;3.50;;;27.10;50.70;;;;;;5083948;28;20088;-89
2022/06/14 13:37:54;;;;;;;5.22;3.78;;;27.10;51.20;;;;;;5084296;28;20023;-90
2022/06/14 13:40:44;;;;;;;5.35;2.80;;;27.60;50.50;;;;;;5079423;28;20399;-90
2022/06/14 13:43:39;;;;;;;11.05;4.03;;;27.60;50.40;;;;;;5062978;28;20048;-93
2022/06/14 13:46:18;;;;;;;4.50;3.50;;;27.40;50.30;;;;;;5054390;28;20039;-92
2022/06/14 13:49:01;;;;;;;6.57;3.72;;;27.20;51.00;;;;;;5061920;28;20119;-89
2022/06/14 13:52:00;;;;;;;5.90;3.78;;;27.00;51.70;;;;;;5082300;28;20033;-92
2022/06/14 13:54:29;;;;;;;7.80;4.13;;;26.80;51.70;;;;;;5069528;28;20761;-91
2022/06/14 13:57:31;;;;;;;10.85;3.80;;;26.60;52.50;;;;;;5082561;28;20029;-90
2022/06/14 14:00:05;;;;;;;9.55;4.13;;;26.60;52.10;;;;;;5076994;28;20013;-91
2022/06/14 14:02:47;;;;;;;11.25;3.83;;;26.50;52.60;;;;;;5077272;28;20073;-88